Time;durP1;ratioP1;P1;durP2;ratioP2;P2;SDS_P1;SDS_P2;PMS_P1;PMS_P2;Temp;Humidity;BMP_temperature;BMP_pressure;BME280_temperature;BME280_humidity;BME280_pressure;Samples;Min_cycle;Max_cycle;Signal;HPM_P1;HPM_P2
2022/08/10 00:01:10;;;;;;;;;7.25;7.25;;;;;23.90;94.95;101802.78;6214322;22;45271;-83
2022/08/10 00:03:36;;;;;;;;;6.50;6.00;;;;;23.84;96.94;101814.28;6214038;22;44750;-83
2022/08/10 00:06:01;;;;;;;;;6.25;6.25;;;;;23.80;95.84;101802.06;6212833;22;46112;-84
2022/08/10 00:08:27;;;;;;;;;9.75;9.00;;;;;23.80;96.88;101812.91;6185452;22;45455;-83
2022/08/10 00:10:55;;;;;;;;;7.00;7.00;;;;;23.76;97.83;101809.66;6212901;22;44711;-83
2022/08/10 00:13:22;;;;;;;;;6.75;6.75;;;;;23.72;98.23;101807.44;6213449;22;44686;-84
2022/08/10 00:15:47;;;;;;;;;7.60;6.40;;;;;23.68;97.71;101803.34;6212710;22;45520;-83
2022/08/10 00:18:13;;;;;;;;;8.25;8.25;;;;;23.60;98.43;101799.56;6213515;22;44628;-84
2022/08/10 00:20:38;;;;;;;;;6.50;6.50;;;;;23.59;98.11;101800.56;6218097;22;45124;-84
2022/08/10 00:23:04;;;;;;;;;7.75;7.75;;;;;23.58;97.34;101798.00;6217859;22;45109;-83
2022/08/10 00:25:29;;;;;;;;;5.25;4.25;;;;;23.50;98.57;101797.97;6217884;22;45174;-84
2022/08/10 00:27:54;;;;;;;;;9.25;6.50;;;;;23.47;99.54;101793.72;6188637;22;44754;-83
2022/08/10 00:30:20;;;;;;;;;2.25;2.00;;;;;23.45;100.00;101800.31;6215319;22;45247;-82
2022/08/10 00:32:45;;;;;;;;;7.50;7.00;;;;;23.41;100.00;101807.94;6214859;22;45203;-83
2022/08/10 00:35:11;;;;;;;;;10.25;8.25;;;;;23.41;100.00;101799.78;6215431;22;45406;-83
2022/08/10 00:37:36;;;;;;;;;7.50;7.50;;;;;23.36;100.00;101799.44;6217620;22;44682;-83
2022/08/10 00:40:03;;;;;;;;;8.00;8.00;;;;;23.28;100.00;101808.34;6222817;22;45229;-83
2022/08/10 00:42:28;;;;;;;;;9.75;8.25;;;;;23.26;100.00;101804.13;6218559;22;44809;-83
2022/08/10 00:44:54;;;;;;;;;9.25;9.25;;;;;23.19;100.00;101795.75;6214591;22;45426;-83
2022/08/10 00:47:19;;;;;;;;;8.25;8.25;;;;;23.21;100.00;101798.28;6215690;22;45180;-83
2022/08/10 00:49:45;;;;;;;;;6.25;5.50;;;;;23.18;100.00;101793.19;6216775;22;44774;-82
2022/08/10 00:52:12;;;;;;;;;8.75;8.75;;;;;23.17;100.00;101794.22;6217783;22;45420;-83
2022/08/10 00:54:39;;;;;;;;;10.00;7.60;;;;;23.09;100.00;101793.13;6215980;22;46216;-82
2022/08/10 00:57:05;;;;;;;;;7.60;7.60;;;;;23.07;100.00;101799.75;6188323;22;45339;-83
2022/08/10 00:59:31;;;;;;;;;6.25;5.00;;;;;23.05;100.00;101791.75;6217213;22;44648;-86
2022/08/10 01:01:58;;;;;;;;;8.60;8.60;;;;;23.05;100.00;101791.75;6221213;22;44742;-86
2022/08/10 01:04:24;;;;;;;;;5.40;5.40;;;;;23.04;100.00;101797.34;6216317;22;45429;-85
2022/08/10 01:07:26;;;;;;;;;9.00;9.00;;;;;22.95;100.00;101798.28;6217176;22;44698;-85
2022/08/10 01:10:14;;;;;;;;;5.40;3.60;;;;;22.94;100.00;101794.72;6217590;22;44768;-83
2022/08/10 01:13:10;;;;;;;;;7.25;6.00;;;;;22.91;100.00;101797.75;6188546;22;45423;-84
2022/08/10 01:16:03;;;;;;;;;9.40;8.60;;;;;22.88;100.00;101789.06;6216827;22;45679;-83
2022/08/10 01:18:49;;;;;;;;;7.80;7.80;;;;;22.84;100.00;101792.06;6214609;22;45514;-84
2022/08/10 01:22:11;;;;;;;;;9.20;7.80;;;;;22.80;100.00;101801.53;6216390;22;44799;-83
2022/08/10 01:24:49;;;;;;;;;6.40;6.40;;;;;22.76;100.00;101786.56;6123237;23;45277;-84
2022/08/10 01:27:39;;;;;;;;;8.80;8.80;;;;;22.75;100.00;101787.59;6128519;23;45372;-84
2022/08/10 01:30:13;;;;;;;;;7.60;7.20;;;;;22.74;100.00;101785.06;6128188;23;44621;-84
2022/08/10 01:32:46;;;;;;;;;10.20;7.60;;;;;22.72;100.00;101787.91;6124755;23;45470;-84
2022/08/10 01:35:20;;;;;;;;;8.25;8.25;;;;;22.67;100.00;101786.66;6099018;23;44755;-82
2022/08/10 01:38:15;;;;;;;;;5.00;5.00;;;;;22.66;100.00;101790.38;6120113;23;45511;-81
2022/08/10 01:40:50;;;;;;;;;7.00;6.00;;;;;22.66;100.00;101790.38;6116772;23;44826;-82
2022/08/10 01:43:19;;;;;;;;;7.60;7.60;;;;;22.61;100.00;101773.75;6120197;23;44977;-82
2022/08/10 01:45:50;;;;;;;;;9.25;9.25;;;;;22.62;100.00;101784.44;6120652;23;44711;-83
2022/08/10 01:48:30;;;;;;;;;11.00;7.00;;;;;22.58;100.00;101783.91;6120736;23;44969;-83
2022/08/10 01:51:00;;;;;;;;;4.60;4.60;;;;;22.58;100.00;101783.06;6121388;23;44669;-83
2022/08/10 01:53:33;;;;;;;;;8.00;8.00;;;;;22.58;100.00;101785.75;6122832;23;44745;-85
2022/08/10 01:56:00;;;;;;;;;5.50;5.50;;;;;22.55;100.00;101786.06;6206317;22;44759;-84
2022/08/10 01:58:28;;;;;;;;;9.50;8.00;;;;;22.52;100.00;101789.06;6207298;22;45227;-84
2022/08/10 02:00:54;;;;;;;;;11.80;8.80;;;;;22.51;100.00;101776.53;6227374;22;45077;-84
2022/08/10 02:03:22;;;;;;;;;7.40;7.40;;;;;22.46;100.00;101777.00;6219687;22;44649;-84
2022/08/10 02:05:53;;;;;;;;;6.75;6.75;;;;;22.40;100.00;101765.97;6221315;22;44837;-85
2022/08/10 02:08:21;;;;;;;;;9.60;8.00;;;;;22.39;100.00;101770.53;6223739;22;45217;-84
2022/08/10 02:10:49;;;;;;;;;7.80;7.80;;;;;22.36;100.00;101776.25;6216859;22;44584;-84
2022/08/10 02:13:16;;;;;;;;;8.60;8.60;;;;;22.34;100.00;101778.25;6220093;22;44730;-83
2022/08/10 02:15:44;;;;;;;;;8.75;8.75;;;;;22.30;100.00;101777.72;6220587;22;45271;-84
2022/08/10 02:18:11;;;;;;;;;8.40;8.40;;;;;22.30;100.00;101771.44;6214117;22;45227;-83
2022/08/10 02:20:44;;;;;;;;;8.60;8.00;;;;;22.28;100.00;101777.00;6213235;22;45304;-84
2022/08/10 02:23:26;;;;;;;;;7.60;6.00;;;;;22.26;100.00;101779.00;6214103;22;44730;-83
2022/08/10 02:25:55;;;;;;;;;9.00;8.75;;;;;22.20;100.00;101774.22;6214815;22;44782;-82
2022/08/10 02:28:25;;;;;;;;;8.40;6.40;;;;;22.19;100.00;101783.34;6215716;22;45274;-83
2022/08/10 02:30:54;;;;;;;;;8.20;6.60;;;;;22.17;100.00;101781.78;6215328;22;44770;-83
2022/08/10 02:33:22;;;;;;;;;10.00;8.60;;;;;22.14;100.00;101782.09;6215499;22;45140;-83
2022/08/10 02:35:50;;;;;;;;;9.00;7.75;;;;;22.10;100.00;101776.13;6190251;22;44809;-83
2022/08/10 02:38:22;;;;;;;;;8.25;8.25;;;;;22.10;100.00;101778.81;6216519;22;45428;-83
2022/08/10 02:40:54;;;;;;;;;9.20;9.00;;;;;22.08;100.00;101775.41;6217138;22;44637;-83
2022/08/10 02:43:26;;;;;;;;;6.60;6.60;;;;;22.06;100.00;101780.97;6216139;22;45413;-83
2022/08/10 02:45:59;;;;;;;;;7.00;7.00;;;;;22.02;100.00;101781.44;6213837;22;44715;-82
2022/08/10 02:48:45;;;;;;;;;7.25;7.25;;;;;22.02;100.00;101779.56;6185521;22;45316;-83
2022/08/10 02:51:19;;;;;;;;;8.80;7.60;;;;;21.97;100.00;101779.19;6185130;22;44723;-83
2022/08/10 02:53:48;;;;;;;;;11.00;6.50;;;;;21.97;100.00;101781.03;6213172;22;45410;-83
2022/08/10 02:56:38;;;;;;;;;9.00;6.75;;;;;21.91;100.00;101782.50;6215499;22;44750;-86
2022/08/10 02:59:04;;;;;;;;;9.25;8.00;;;;;21.92;100.00;101783.34;6218595;22;45648;-86
2022/08/10 03:01:33;;;;;;;;;7.25;7.25;;;;;21.89;100.00;101783.63;6195381;22;45021;-84
2022/08/10 03:04:03;;;;;;;;;8.40;8.40;;;;;21.87;100.00;101786.50;6221293;22;44702;-83
2022/08/10 03:06:42;;;;;;;;;10.00;8.50;;;;;21.86;100.00;101786.66;6214993;22;44810;-86
2022/08/10 03:09:12;;;;;;;;;7.00;7.00;;;;;21.83;100.00;101787.81;6188171;22;46755;-85
2022/08/10 03:11:39;;;;;;;;;7.60;6.40;;;;;21.79;100.00;101784.53;6215691;22;44717;-84
2022/08/10 03:14:07;;;;;;;;;8.40;7.00;;;;;21.76;100.00;101786.72;6215768;22;44758;-84
2022/08/10 03:16:34;;;;;;;;;6.75;6.75;;;;;21.72;100.00;101785.31;6215260;22;44788;-83
2022/08/10 03:19:02;;;;;;;;;10.75;7.25;;;;;21.72;100.00;101786.16;6214329;22;45157;-84
2022/08/10 03:21:30;;;;;;;;;3.60;3.60;;;;;21.68;100.00;101789.31;6214027;22;45336;-83
2022/08/10 03:23:57;;;;;;;;;7.80;7.80;;;;;21.65;100.00;101787.72;6213785;22;44666;-82
2022/08/10 03:26:23;;;;;;;;;9.25;9.25;;;;;21.63;100.00;101783.50;6186513;22;45307;-82
2022/08/10 03:28:51;;;;;;;;;8.20;8.20;;;;;21.59;100.00;101793.75;6213526;22;45263;-83
2022/08/10 03:31:17;;;;;;;;;8.80;8.80;;;;;21.60;100.00;101779.22;6214194;22;44794;-84
2022/08/10 03:33:44;;;;;;;;;7.20;6.60;;;;;21.60;100.00;101772.97;6213291;22;44865;-86
2022/08/10 03:36:10;;;;;;;;;8.00;8.00;;;;;21.59;100.00;101776.66;6234553;22;44710;-85
2022/08/10 03:38:35;;;;;;;;;8.25;7.00;;;;;21.58;100.00;101774.97;6241742;22;45068;-83
2022/08/10 03:41:04;;;;;;;;;7.00;6.00;;;;;21.54;100.00;101780.66;6227942;22;44670;-84
2022/08/10 03:43:30;;;;;;;;;8.00;8.00;;;;;21.53;100.00;101787.09;6189732;22;44660;-85
2022/08/10 03:45:58;;;;;;;;;8.00;7.75;;;;;21.48;100.00;101783.13;6219850;22;45247;-85
2022/08/10 03:48:26;;;;;;;;;8.25;8.25;;;;;21.45;100.00;101784.25;6223561;22;45157;-85
2022/08/10 03:50:54;;;;;;;;;7.40;7.40;;;;;21.41;100.00;101784.69;6226917;22;45308;-85
2022/08/10 03:53:19;;;;;;;;;8.40;6.60;;;;;21.39;100.00;101784.00;6221421;22;44595;-85
2022/08/10 03:55:46;;;;;;;;;11.00;8.25;;;;;21.36;100.00;101781.59;6188543;22;45267;-86
2022/08/10 03:58:12;;;;;;;;;6.00;6.00;;;;;21.27;100.00;101783.28;6215779;22;45185;-85
2022/08/10 04:00:39;;;;;;;;;9.80;8.80;;;;;21.21;100.00;101782.03;6215343;22;45485;-85
2022/08/10 04:03:04;;;;;;;;;9.80;5.00;;;;;21.19;100.00;101788.59;6214988;22;45204;-85
2022/08/10 04:05:33;;;;;;;;;8.25;8.25;;;;;21.11;100.00;101783.91;6217139;22;44845;-85
2022/08/10 04:07:59;;;;;;;;;10.25;10.25;;;;;21.08;100.00;101786.91;6217518;22;45481;-85
2022/08/10 04:10:25;;;;;;;;;15.00;10.80;;;;;21.04;100.00;101786.34;6217365;22;45138;-85
2022/08/10 04:12:51;;;;;;;;;10.25;8.25;;;;;21.01;100.00;101781.22;6214343;22;44677;-85
2022/08/10 04:15:17;;;;;;;;;9.50;9.50;;;;;21.01;100.00;101788.47;6215434;22;45664;-85
2022/08/10 04:17:42;;;;;;;;;9.75;8.75;;;;;21.01;100.00;101788.47;6214521;22;45450;-85
2022/08/10 04:20:18;;;;;;;;;8.50;7.00;;;;;20.95;100.00;101794.47;6215933;22;44741;-84
2022/08/10 04:22:47;;;;;;;;;10.00;10.00;;;;;20.95;100.00;101787.22;6215753;22;45451;-85
2022/08/10 04:25:14;;;;;;;;;10.75;9.75;;;;;20.92;100.00;101800.16;6215501;22;44861;-87
2022/08/10 04:27:40;;;;;;;;;7.50;7.50;;;;;20.91;100.00;101807.41;6215925;22;45145;-84
2022/08/10 04:30:06;;;;;;;;;9.25;8.25;;;;;20.86;100.00;101798.88;6226776;22;44662;-85
2022/08/10 04:32:33;;;;;;;;;9.20;7.40;;;;;20.84;100.00;101791.91;6227329;22;44668;-86
2022/08/10 04:35:00;;;;;;;;;5.25;5.25;;;;;20.83;100.00;101798.31;6217614;22;44877;-85
2022/08/10 04:37:28;;;;;;;;;10.25;9.75;;;;;20.79;100.00;101795.91;6189762;22;45748;-84
2022/08/10 04:39:54;;;;;;;;;8.80;8.80;;;;;20.77;100.00;101791.63;6220842;22;44639;-86
2022/08/10 04:42:20;;;;;;;;;9.25;7.25;;;;;20.76;100.00;101798.03;6217164;22;45106;-85
2022/08/10 04:44:45;;;;;;;;;8.00;8.00;;;;;20.75;100.00;101796.34;6213747;22;44818;-86
2022/08/10 04:47:11;;;;;;;;;10.50;8.50;;;;;20.77;100.00;101792.47;6214619;22;45228;-84
2022/08/10 04:49:36;;;;;;;;;9.00;8.25;;;;;20.81;100.00;101798.47;6215562;22;45157;-85
2022/08/10 04:52:02;;;;;;;;;10.25;8.50;;;;;20.87;100.00;101797.88;6221442;22;44627;-86
2022/08/10 04:54:27;;;;;;;;;8.00;8.00;;;;;20.94;100.00;101803.56;6222318;22;45392;-84
2022/08/10 04:56:53;;;;;;;;;8.75;8.75;;;;;20.99;100.00;101802.16;6221573;22;45331;-85
2022/08/10 04:59:19;;;;;;;;;8.20;6.80;;;;;21.04;100.00;101812.53;6217984;22;44670;-83
2022/08/10 05:01:44;;;;;;;;;8.50;6.75;;;;;21.10;100.00;101805.69;6216474;22;45358;-83
2022/08/10 05:04:09;;;;;;;;;9.50;8.00;;;;;21.18;100.00;101803.09;6186206;22;44865;-82
2022/08/10 05:06:35;;;;;;;;;5.75;3.50;;;;;21.27;100.00;101810.31;6212823;22;45180;-83
2022/08/10 05:09:00;;;;;;;;;7.50;7.50;;;;;21.37;100.00;101811.19;6214193;22;45338;-84
2022/08/10 05:11:25;;;;;;;;;10.00;7.25;;;;;21.50;100.00;101813.56;6215647;22;44759;-85
2022/08/10 05:13:51;;;;;;;;;8.25;6.75;;;;;21.59;100.00;101811.81;6216772;22;44807;-85
2022/08/10 05:16:18;;;;;;;;;11.00;9.25;;;;;21.60;100.00;101814.38;6216001;22;45648;-86
2022/08/10 05:18:43;;;;;;;;;10.80;9.00;;;;;21.65;100.00;101814.78;6215784;22;44742;-87
2022/08/10 05:21:08;;;;;;;;;9.00;8.25;;;;;21.69;100.00;101818.91;6215751;22;45093;-85
2022/08/10 05:23:35;;;;;;;;;10.75;8.25;;;;;21.75;100.00;101817.44;6217469;22;44687;-85
2022/08/10 05:26:00;;;;;;;;;9.25;9.25;;;;;21.86;100.00;101803.75;6187363;22;46662;-86
2022/08/10 05:28:26;;;;;;;;;9.50;7.00;;;;;22.00;100.00;101816.78;6223698;22;45169;-86
2022/08/10 05:30:51;;;;;;;;;8.25;6.25;;;;;22.14;100.00;101815.41;6195893;22;45088;-85
2022/08/10 05:33:16;;;;;;;;;9.25;7.50;;;;;22.06;100.00;101813.44;6216880;22;45521;-87
2022/08/10 05:35:42;;;;;;;;;7.00;7.00;;;;;22.23;100.00;101822.63;6188972;22;45951;-85
2022/08/10 05:38:11;;;;;;;;;5.75;4.75;;;;;22.38;100.00;101827.53;6215856;22;45179;-85
2022/08/10 05:40:43;;;;;;;;;5.00;5.00;;;;;22.42;100.00;101823.50;6215625;22;45213;-85
2022/08/10 05:43:09;;;;;;;;;4.25;4.00;;;;;22.57;100.00;101820.09;6187419;22;45244;-85
2022/08/10 05:45:35;;;;;;;;;6.50;6.50;;;;;22.68;100.00;101810.91;6188535;22;46567;-85
2022/08/10 05:48:00;;;;;;;;;11.00;7.50;;;;;22.79;100.00;101810.66;6215856;22;45322;-85
2022/08/10 05:50:29;;;;;;;;;7.75;6.50;;;;;22.89;100.00;101823.31;6215303;22;45374;-84
2022/08/10 05:52:55;;;;;;;;;7.75;7.00;;;;;22.96;100.00;101818.94;6217556;22;44885;-86
2022/08/10 05:55:23;;;;;;;;;7.50;7.00;;;;;23.09;100.00;101813.97;6218620;22;45533;-85
2022/08/10 05:57:49;;;;;;;;;8.20;7.40;;;;;23.20;100.00;101813.72;6219355;22;45393;-85
2022/08/10 06:00:18;;;;;;;;;10.80;8.20;;;;;23.25;100.00;101814.09;6217752;22;44674;-85
2022/08/10 06:02:47;;;;;;;;;8.60;8.40;;;;;23.41;100.00;101824.19;6217109;22;44870;-85
2022/08/10 06:05:24;;;;;;;;;10.00;8.80;;;;;23.52;100.00;101823.91;6219898;22;45661;-86
2022/08/10 06:08:14;;;;;;;;;8.00;7.00;;;;;23.72;100.00;101821.00;6192336;22;45081;-85
2022/08/10 06:10:41;;;;;;;;;6.20;6.20;;;;;23.77;100.00;101824.06;6199861;22;44658;-84
2022/08/10 06:15:54;;;;;;;;;10.00;9.40;;;;;23.76;100.00;101827.81;6227675;22;45032;-86
2022/08/10 06:18:22;;;;;;;;;9.20;7.40;;;;;23.89;100.00;101819.22;6223771;22;44729;-87
2022/08/10 06:20:49;;;;;;;;;9.40;9.40;;;;;23.99;100.00;101825.38;6221695;22;44758;-85
2022/08/10 06:23:15;;;;;;;;;7.20;7.20;;;;;24.10;100.00;101828.63;6218868;22;45273;-86
2022/08/10 06:25:41;;;;;;;;;10.00;8.80;;;;;23.97;100.00;101830.94;6191862;22;47023;-86
2022/08/10 06:28:10;;;;;;;;;8.75;8.75;;;;;23.93;100.00;101829.56;6220748;22;44782;-85
2022/08/10 06:30:37;;;;;;;;;8.00;8.00;;;;;24.03;100.00;101835.75;6221627;22;44962;-86
2022/08/10 06:33:05;;;;;;;;;9.00;9.00;;;;;24.16;100.00;101828.97;6221178;22;44893;-86
2022/08/10 06:35:33;;;;;;;;;8.60;6.60;;;;;24.19;98.68;101828.66;6223124;22;45106;-86
2022/08/10 06:38:01;;;;;;;;;6.00;6.00;;;;;24.34;98.56;101836.00;6219137;22;45268;-86
2022/08/10 06:40:31;;;;;;;;;11.80;10.20;;;;;24.47;96.91;101832.84;6218811;22;44712;-86
2022/08/10 06:42:59;;;;;;;;;7.80;7.80;;;;;24.44;97.42;101835.03;6217215;22;45127;-87
2022/08/10 06:45:32;;;;;;;;;7.60;6.60;;;;;24.43;96.59;101830.63;6218412;22;45675;-86
2022/08/10 06:48:02;;;;;;;;;10.20;10.20;;;;;24.36;97.85;101835.84;6211284;22;44703;-88
2022/08/10 06:50:43;;;;;;;;;9.60;8.00;;;;;24.38;97.06;101838.41;6218538;22;45248;-86
2022/08/10 06:53:20;;;;;;;;;8.80;8.00;;;;;24.35;97.59;101843.13;6226494;22;44794;-87
2022/08/10 06:55:57;;;;;;;;;8.20;8.20;;;;;24.31;97.66;101840.91;6226452;22;45050;-85
2022/08/10 06:58:25;;;;;;;;;11.60;9.80;;;;;24.32;97.67;101843.47;6221096;22;44741;-86
2022/08/10 07:01:03;;;;;;;;;8.00;7.40;;;;;24.28;97.47;101838.53;6221506;22;45249;-86
2022/08/10 07:03:35;;;;;;;;;11.00;10.50;;;;;24.22;96.44;101839.16;6190513;22;44803;-86
2022/08/10 07:06:03;;;;;;;;;10.20;8.40;;;;;24.08;98.20;101843.41;6217119;22;45224;-86
2022/08/10 07:08:32;;;;;;;;;14.40;9.20;;;;;24.12;97.52;101839.31;6192362;22;44736;-86
2022/08/10 07:11:00;;;;;;;;;8.40;7.20;;;;;24.04;96.02;101839.31;6223247;22;44734;-86
2022/08/10 07:13:28;;;;;;;;;13.50;9.25;;;;;24.06;96.81;101834.53;6195462;22;45577;-86
2022/08/10 07:15:54;;;;;;;;;12.00;9.80;;;;;24.02;97.92;101830.47;6218623;22;45466;-87
2022/08/10 07:18:21;;;;;;;;;11.20;9.00;;;;;24.00;98.35;101822.47;6220875;22;45176;-87
2022/08/10 07:20:48;;;;;;;;;11.60;9.80;;;;;23.99;97.99;101834.38;6224146;22;45288;-87
2022/08/10 07:23:15;;;;;;;;;11.25;9.25;;;;;24.01;97.51;101826.03;6223837;22;44869;-87
2022/08/10 07:25:44;;;;;;;;;10.80;9.20;;;;;24.07;97.65;101826.22;6192701;22;46049;-88
2022/08/10 07:28:12;;;;;;;;;10.00;9.00;;;;;24.25;96.07;101828.00;6218305;22;44655;-86
2022/08/10 07:30:39;;;;;;;;;12.60;11.40;;;;;24.37;96.27;101821.28;6220810;22;44646;-88
2022/08/10 07:33:07;;;;;;;;;10.75;10.75;;;;;24.52;95.25;101829.63;6225408;22;44909;-86
2022/08/10 07:35:35;;;;;;;;;10.50;10.50;;;;;24.54;95.59;101833.84;6226406;22;45175;-85
2022/08/10 07:38:02;;;;;;;;;11.00;10.40;;;;;24.44;94.97;101835.88;6231150;22;44736;-87
2022/08/10 07:40:28;;;;;;;;;11.60;9.20;;;;;24.59;95.15;101836.91;6208934;22;44766;-86
2022/08/10 07:42:58;;;;;;;;;11.50;9.00;;;;;24.81;94.46;101830.00;6235681;22;44896;-83
2022/08/10 07:45:30;;;;;;;;;8.40;8.00;;;;;24.72;92.69;101836.44;6229884;22;45212;-85
2022/08/10 07:48:02;;;;;;;;;10.60;10.40;;;;;24.81;92.73;101832.72;6202943;22;44774;-84
2022/08/10 07:50:29;;;;;;;;;8.60;8.00;;;;;24.88;91.43;101828.28;6232586;22;44669;-85
2022/08/10 07:53:01;;;;;;;;;10.00;9.25;;;;;25.16;89.10;101836.13;6231508;22;44722;-85
2022/08/10 07:55:28;;;;;;;;;11.40;9.20;;;;;25.34;88.97;101836.78;6233896;22;45326;-83
2022/08/10 07:57:56;;;;;;;;;6.60;6.60;;;;;25.37;86.96;101836.41;6228414;22;44785;-85
2022/08/10 08:00:24;;;;;;;;;8.00;8.00;;;;;25.56;86.99;101840.63;6200465;22;44767;-84
2022/08/10 08:02:52;;;;;;;;;12.75;11.00;;;;;25.73;86.04;101841.44;6223153;22;44816;-84
2022/08/10 08:05:24;;;;;;;;;13.40;10.20;;;;;25.88;84.91;101845.16;6216014;22;45244;-84
2022/08/10 08:07:51;;;;;;;;;8.40;7.60;;;;;26.01;83.70;101849.19;6213743;22;44723;-84
2022/08/10 08:10:18;;;;;;;;;13.40;11.40;;;;;26.05;82.92;101853.25;6185400;22;44688;-84
2022/08/10 08:12:45;;;;;;;;;9.75;8.50;;;;;26.21;82.36;101841.44;6188750;22;44874;-85
2022/08/10 08:15:19;;;;;;;;;13.20;9.80;;;;;26.46;81.18;101839.47;6199572;22;46648;-84
2022/08/10 08:17:47;;;;;;;;;10.80;9.40;;;;;26.60;79.41;101852.31;6231754;22;45258;-84
2022/08/10 08:20:16;;;;;;;;;9.80;9.00;;;;;26.54;78.20;101845.69;6234639;22;45156;-82
2022/08/10 08:22:43;;;;;;;;;10.00;8.60;;;;;26.42;80.03;101838.09;6235921;22;44725;-86
2022/08/10 08:25:10;;;;;;;;;10.60;9.20;;;;;26.54;80.23;101837.50;6237147;22;45317;-85
2022/08/10 08:27:39;;;;;;;;;11.60;10.40;;;;;26.40;79.23;101838.28;6206848;22;44777;-84
2022/08/10 08:30:07;;;;;;;;;10.80;10.60;;;;;26.45;78.06;101827.72;6214181;22;45257;-84
2022/08/10 08:32:36;;;;;;;;;12.60;8.80;;;;;26.63;77.33;101825.50;6213741;22;44686;-85
2022/08/10 08:35:06;;;;;;;;;11.20;10.20;;;;;26.74;77.66;101821.53;6218105;22;45327;-85
2022/08/10 08:37:33;;;;;;;;;11.60;9.80;;;;;26.81;77.50;101816.19;6218301;22;44607;-86
2022/08/10 08:40:10;;;;;;;;;7.40;7.40;;;;;26.91;79.68;101820.34;6215666;22;44663;-86
2022/08/10 08:43:13;;;;;;;;;9.00;9.00;;;;;26.92;76.52;101829.38;6163304;22;45224;-87
2022/08/10 08:45:57;;;;;;;;;11.25;10.75;;;;;27.04;74.75;101821.63;6188272;22;46828;-86
2022/08/10 08:48:52;;;;;;;;;8.20;8.00;;;;;27.15;76.73;101823.94;6219826;22;45103;-86
2022/08/10 08:51:32;;;;;;;;;11.80;10.00;;;;;27.21;74.73;101816.88;6210252;22;45203;-86
2022/08/10 08:54:35;;;;;;;;;8.40;8.40;;;;;27.32;75.43;101810.94;6193664;22;44695;-86
2022/08/10 08:57:24;;;;;;;;;12.80;11.00;;;;;27.18;74.46;101815.38;6217686;22;45229;-86
2022/08/10 09:00:17;;;;;;;;;10.40;10.20;;;;;27.36;74.86;101809.53;6124258;23;44801;-85
2022/08/10 09:02:54;;;;;;;;;9.00;9.00;;;;;27.52;73.55;101814.00;6101317;23;45227;-87
2022/08/10 09:05:25;;;;;;;;;12.25;11.25;;;;;27.52;72.92;101812.13;6125584;23;45335;-86
2022/08/10 09:08:31;;;;;;;;;14.20;12.80;;;;;27.60;72.55;101803.81;6126382;23;45344;-87
2022/08/10 09:11:07;;;;;;;;;12.00;10.60;;;;;27.76;70.41;101812.91;6127097;23;45269;-86
2022/08/10 09:13:45;;;;;;;;;7.40;4.40;;;;;27.54;71.93;101811.91;6128110;23;44637;-87
2022/08/10 09:16:36;;;;;;;;;10.75;10.75;;;;;27.44;70.86;101811.34;6127072;23;45383;-86
2022/08/10 09:19:09;;;;;;;;;13.00;11.20;;;;;27.57;70.69;101803.34;6134751;23;45394;-86
2022/08/10 09:21:50;;;;;;;;;10.80;8.20;;;;;27.77;69.74;101809.13;6137386;23;44630;-87
2022/08/10 09:24:45;;;;;;;;;11.80;11.80;;;;;27.96;68.94;101802.22;6102867;23;44807;-86
2022/08/10 09:27:23;;;;;;;;;11.40;10.40;;;;;28.07;68.65;101807.19;6127973;23;44838;-87
2022/08/10 09:30:05;;;;;;;;;9.60;7.20;;;;;27.91;68.35;101806.38;6130344;23;45263;-87
2022/08/10 09:32:52;;;;;;;;;11.80;10.80;;;;;28.08;68.12;101798.78;6130595;23;44735;-86
2022/08/10 09:35:25;;;;;;;;;12.00;11.80;;;;;28.25;67.10;101795.84;6128313;23;44701;-87
2022/08/10 09:38:16;;;;;;;;;10.80;8.80;;;;;28.40;67.80;101783.84;6211292;22;44753;-84
2022/08/10 09:40:48;;;;;;;;;11.60;10.40;;;;;28.52;67.26;101791.50;6219483;22;45242;-86
2022/08/10 09:43:16;;;;;;;;;11.60;9.60;;;;;28.65;65.53;101787.00;6217346;22;45438;-84
2022/08/10 09:46:05;;;;;;;;;10.40;10.40;;;;;28.77;64.91;101786.47;6219648;22;44579;-85
2022/08/10 09:48:33;;;;;;;;;10.25;7.75;;;;;28.91;64.45;101786.41;6219969;22;44798;-85
2022/08/10 09:51:21;;;;;;;;;14.40;11.40;;;;;29.10;63.63;101784.03;6218235;22;45089;-85
2022/08/10 09:54:31;;;;;;;;;8.20;8.20;;;;;29.00;61.16;101787.13;6218397;22;44532;-86
2022/08/10 09:57:32;;;;;;;;;16.00;13.00;;;;;29.01;61.31;101788.84;6218167;22;45092;-86
2022/08/10 10:00:08;;;;;;;;;10.25;9.00;;;;;29.16;63.40;101783.25;6215740;22;45149;-85
2022/08/10 10:03:05;;;;;;;;;8.25;8.25;;;;;29.21;59.56;101788.97;6217421;22;45244;-86
2022/08/10 10:05:51;;;;;;;;;12.20;11.40;;;;;29.29;59.25;101775.13;6217791;22;45108;-88
2022/08/10 10:08:55;;;;;;;;;15.80;11.40;;;;;29.42;58.66;101780.69;6217259;22;44643;-85
2022/08/10 10:11:34;;;;;;;;;8.00;6.25;;;;;29.60;58.21;101761.00;6176417;23;45535;-85
2022/08/10 10:14:10;;;;;;;;;11.60;10.60;;;;;29.74;57.33;101758.31;6186868;23;45208;-87
2022/08/10 10:16:40;;;;;;;;;13.20;11.60;;;;;29.83;54.58;101776.25;6187140;23;44527;-86
2022/08/10 10:19:33;;;;;;;;;11.00;11.00;;;;;29.96;55.16;101759.88;6184460;23;45389;-85
2022/08/10 10:22:25;;;;;;;;;9.00;9.00;;;;;30.06;54.72;101760.31;6190401;23;44772;-85
2022/08/10 10:24:58;;;;;;;;;12.40;9.60;;;;;30.23;52.39;101763.59;6178229;23;46852;-86
2022/08/10 10:27:32;;;;;;;;;12.80;9.60;;;;;30.35;51.94;101761.06;6204690;23;44682;-86
2022/08/10 10:30:08;;;;;;;;;7.20;6.20;;;;;30.30;50.09;101758.09;6194270;23;45094;-86
2022/08/10 10:32:57;;;;;;;;;9.50;9.00;;;;;30.26;50.55;101751.34;6188908;23;44644;-86
2022/08/10 10:35:32;;;;;;;;;9.40;8.00;;;;;30.46;50.44;101757.69;6096729;23;45329;-87
2022/08/10 10:37:59;;;;;;;;;4.20;4.20;;;;;30.52;47.43;101742.31;6099339;23;44685;-87
2022/08/10 10:40:31;;;;;;;;;9.80;9.60;;;;;30.54;46.77;101746.53;6098926;23;44674;-85
2022/08/10 10:43:05;;;;;;;;;8.00;7.50;;;;;30.50;47.27;101739.75;6094220;23;44804;-85
2022/08/10 10:45:40;;;;;;;;;9.80;9.00;;;;;30.64;47.27;101740.63;6097167;23;45365;-85
2022/08/10 10:48:32;;;;;;;;;6.60;6.60;;;;;30.79;47.74;101740.44;6098859;23;44617;-87
2022/08/10 10:51:18;;;;;;;;;9.00;9.00;;;;;30.96;45.38;101727.97;6098278;23;44711;-87
2022/08/10 10:53:46;;;;;;;;;7.00;7.00;;;;;31.18;45.56;101726.63;6098880;23;44657;-87
2022/08/10 10:56:15;;;;;;;;;9.20;9.20;;;;;31.33;45.26;101733.81;6097804;23;46640;-88
2022/08/10 10:58:57;;;;;;;;;12.00;12.00;;;;;31.41;43.49;101725.34;6098679;23;44672;-86
2022/08/10 11:02:05;;;;;;;;;8.40;8.40;;;;;31.48;43.65;101729.78;6073391;23;44679;-87
2022/08/10 11:04:39;;;;;;;;;7.00;7.00;;;;;31.59;41.81;101716.41;6097015;23;44709;-86
2022/08/10 11:07:27;;;;;;;;;9.00;9.00;;;;;31.58;38.23;101714.72;6071747;23;46560;-88
2022/08/10 11:10:06;;;;;;;;;7.80;7.80;;;;;31.58;38.34;101718.31;6109082;23;44727;-83
2022/08/10 11:13:05;;;;;;;;;9.00;8.00;;;;;31.73;38.88;101721.63;6174185;22;45508;-84
2022/08/10 11:15:42;;;;;;;;;8.00;8.00;;;;;31.93;39.55;101717.97;6213770;22;44703;-84
2022/08/10 11:18:34;;;;;;;;;7.00;7.00;;;;;31.99;36.67;101715.16;6214554;22;45022;-85
2022/08/10 11:21:22;;;;;;;;;9.00;9.00;;;;;31.98;37.06;101716.22;6205343;22;45252;-85
2022/08/10 11:24:16;;;;;;;;;10.60;9.20;;;;;32.01;37.82;101711.34;6219644;22;44713;-87
2022/08/10 11:26:54;;;;;;;;;9.80;9.80;;;;;32.07;38.33;101704.97;6216598;22;44813;-87
2022/08/10 11:29:31;;;;;;;;;8.60;8.60;;;;;32.17;38.45;101705.31;6218558;22;45039;-84
2022/08/10 11:32:28;;;;;;;;;8.60;8.00;;;;;32.31;38.12;101704.16;6215135;22;44663;-84
2022/08/10 11:35:11;;;;;;;;;7.60;7.40;;;;;32.39;37.18;101687.41;6124839;23;45467;-84
2022/08/10 11:37:51;;;;;;;;;12.80;10.00;;;;;32.39;36.30;101690.16;6133077;23;44878;-87
2022/08/10 11:40:25;;;;;;;;;6.00;6.00;;;;;32.39;37.52;101686.56;6139548;23;45321;-88
2022/08/10 11:43:09;;;;;;;;;9.20;8.20;;;;;32.47;37.37;101692.63;6136107;23;44737;-86
2022/08/10 11:45:40;;;;;;;;;6.80;5.20;;;;;32.46;35.29;101693.69;6132636;23;44762;-88